sensor_id;sensor_type;location;lat;lon;timestamp;pressure;altitude;pressure_sealevel;temperature;humidity
20009;BME280;10165;42.662;23.260;2023-04-25T00:01:46;93352.72;;;14.14;71.91
20009;BME280;10165;42.662;23.260;2023-04-25T00:04:13;93355.44;;;14.25;71.61
20009;BME280;10165;42.662;23.260;2023-04-25T00:06:40;93345.06;;;14.45;71.26
20009;BME280;10165;42.662;23.260;2023-04-25T00:09:06;93335.50;;;13.91;71.24
20009;BME280;10165;42.662;23.260;2023-04-25T00:11:35;93328.56;;;14.35;70.80
20009;BME280;10165;42.662;23.260;2023-04-25T00:14:03;93318.94;;;14.31;69.53
20009;BME280;10165;42.662;23.260;2023-04-25T00:16:30;93310.53;;;14.29;70.46
20009;BME280;10165;42.662;23.260;2023-04-25T00:19:01;93315.53;;;14.41;69.78
20009;BME280;10165;42.662;23.260;2023-04-25T00:21:30;93315.91;;;13.62;72.41
20009;BME280;10165;42.662;23.260;2023-04-25T00:23:58;93317.06;;;13.78;72.06
20009;BME280;10165;42.662;23.260;2023-04-25T00:26:27;93322.44;;;14.00;71.17
20009;BME280;10165;42.662;23.260;2023-04-25T00:28:54;93313.22;;;14.11;71.10
20009;BME280;10165;42.662;23.260;2023-04-25T00:31:20;93320.13;;;14.05;70.75
20009;BME280;10165;42.662;23.260;2023-04-25T00:33:47;93313.59;;;13.99;71.11
20009;BME280;10165;42.662;23.260;2023-04-25T00:36:14;93312.03;;;13.38;73.41
20009;BME280;10165;42.662;23.260;2023-04-25T00:38:41;93311.66;;;13.25;74.42
20009;BME280;10165;42.662;23.260;2023-04-25T00:41:08;93313.09;;;13.05;74.97
20009;BME280;10165;42.662;23.260;2023-04-25T00:43:36;93330.03;;;13.27;73.95
20009;BME280;10165;42.662;23.260;2023-04-25T00:46:03;93323.84;;;13.12;74.35
20009;BME280;10165;42.662;23.260;2023-04-25T00:48:30;93317.81;;;13.54;73.10
20009;BME280;10165;42.662;23.260;2023-04-25T00:50:58;93311.66;;;13.43;73.50
20009;BME280;10165;42.662;23.260;2023-04-25T00:53:27;93307.41;;;13.21;74.19
20009;BME280;10165;42.662;23.260;2023-04-25T00:55:54;93307.59;;;12.73;75.24
20009;BME280;10165;42.662;23.260;2023-04-25T00:58:22;93306.81;;;12.69;74.30
20009;BME280;10165;42.662;23.260;2023-04-25T01:00:50;93308.97;;;13.36;72.90
20009;BME280;10165;42.662;23.260;2023-04-25T01:03:18;93291.75;;;13.65;70.51
20009;BME280;10165;42.662;23.260;2023-04-25T01:05:48;93289.59;;;11.98;77.91
20009;BME280;10165;42.662;23.260;2023-04-25T01:08:15;93282.69;;;12.62;77.68
20009;BME280;10165;42.662;23.260;2023-04-25T01:10:42;93293.06;;;12.71;76.77
20009;BME280;10165;42.662;23.260;2023-04-25T01:13:09;93288.94;;;12.91;76.13
20009;BME280;10165;42.662;23.260;2023-04-25T01:15:36;93274.09;;;13.25;74.90
20009;BME280;10165;42.662;23.260;2023-04-25T01:18:04;93289.06;;;13.58;73.87
20009;BME280;10165;42.662;23.260;2023-04-25T01:20:32;93292.53;;;13.98;72.83
20009;BME280;10165;42.662;23.260;2023-04-25T01:23:00;93292.88;;;14.24;71.52
20009;BME280;10165;42.662;23.260;2023-04-25T01:25:30;93292.09;;;14.38;70.73
20009;BME280;10165;42.662;23.260;2023-04-25T01:27:57;93282.56;;;13.73;73.42
20009;BME280;10165;42.662;23.260;2023-04-25T01:30:28;93292.88;;;14.21;71.48
20009;BME280;10165;42.662;23.260;2023-04-25T01:32:55;93298.25;;;14.21;71.48
20009;BME280;10165;42.662;23.260;2023-04-25T01:35:23;93300.94;;;14.21;71.26
20009;BME280;10165;42.662;23.260;2023-04-25T01:37:51;93284.06;;;14.13;71.53
20009;BME280;10165;42.662;23.260;2023-04-25T01:40:19;93290.22;;;13.78;73.08
20009;BME280;10165;42.662;23.260;2023-04-25T01:42:47;93289.47;;;13.85;73.78
20009;BME280;10165;42.662;23.260;2023-04-25T01:45:14;93281.78;;;13.98;71.83
20009;BME280;10165;42.662;23.260;2023-04-25T01:47:41;93297.13;;;13.86;72.66
20009;BME280;10165;42.662;23.260;2023-04-25T01:50:10;93301.34;;;14.05;71.68
20009;BME280;10165;42.662;23.260;2023-04-25T01:52:38;93299.03;;;14.18;71.70
20009;BME280;10165;42.662;23.260;2023-04-25T01:55:05;93297.88;;;14.15;71.16
20009;BME280;10165;42.662;23.260;2023-04-25T01:57:32;93305.56;;;13.74;73.25
20009;BME280;10165;42.662;23.260;2023-04-25T02:00:01;93296.38;;;13.79;73.98
20009;BME280;10165;42.662;23.260;2023-04-25T02:02:29;93288.66;;;14.23;72.20
20009;BME280;10165;42.662;23.260;2023-04-25T02:04:56;93300.16;;;14.24;71.74
20009;BME280;10165;42.662;23.260;2023-04-25T02:07:22;93293.28;;;13.45;74.31
20009;BME280;10165;42.662;23.260;2023-04-25T02:09:49;93285.25;;;13.63;74.64
20009;BME280;10165;42.662;23.260;2023-04-25T02:12:16;93287.16;;;13.80;74.64
20009;BME280;10165;42.662;23.260;2023-04-25T02:14:43;93284.06;;;14.20;72.56
20009;BME280;10165;42.662;23.260;2023-04-25T02:17:09;93262.94;;;14.26;72.10
20009;BME280;10165;42.662;23.260;2023-04-25T02:19:36;93269.09;;;14.23;71.45
20009;BME280;10165;42.662;23.260;2023-04-25T02:22:03;93266.00;;;14.28;71.08
20009;BME280;10165;42.662;23.260;2023-04-25T02:24:30;93258.72;;;14.25;71.06
20009;BME280;10165;42.662;23.260;2023-04-25T02:26:58;93264.88;;;14.36;70.38
20009;BME280;10165;42.662;23.260;2023-04-25T02:29:25;93262.19;;;14.25;70.50
20009;BME280;10165;42.662;23.260;2023-04-25T02:31:51;93258.72;;;14.25;71.21
20009;BME280;10165;42.662;23.260;2023-04-25T02:34:18;93261.75;;;14.52;70.39
20009;BME280;10165;42.662;23.260;2023-04-25T02:36:45;93252.66;;;13.57;73.65
20009;BME280;10165;42.662;23.260;2023-04-25T02:39:11;93255.72;;;13.41;75.09
20009;BME280;10165;42.662;23.260;2023-04-25T02:41:38;93253.81;;;13.67;74.69
20009;BME280;10165;42.662;23.260;2023-04-25T02:44:05;93249.19;;;13.96;73.99
20009;BME280;10165;42.662;23.260;2023-04-25T02:46:31;93245.34;;;14.04;72.27
20009;BME280;10165;42.662;23.260;2023-04-25T02:49:03;93241.09;;;14.17;71.72
20009;BME280;10165;42.662;23.260;2023-04-25T02:51:30;93235.00;;;13.99;71.94
20009;BME280;10165;42.662;23.260;2023-04-25T02:53:56;93232.31;;;14.06;72.16
20009;BME280;10165;42.662;23.260;2023-04-25T02:56:23;93223.41;;;12.74;75.51
20009;BME280;10165;42.662;23.260;2023-04-25T02:58:53;93229.28;;;13.44;74.94
20009;BME280;10165;42.662;23.260;2023-04-25T03:01:20;93223.50;;;13.91;72.53
20009;BME280;10165;42.662;23.260;2023-04-25T03:03:47;93214.25;;;14.17;71.38
20009;BME280;10165;42.662;23.260;2023-04-25T03:06:14;93218.91;;;13.99;71.51
20009;BME280;10165;42.662;23.260;2023-04-25T03:08:42;93221.22;;;13.86;71.18
20009;BME280;10165;42.662;23.260;2023-04-25T03:11:09;93225.03;;;13.81;71.45
20009;BME280;10165;42.662;23.260;2023-04-25T03:13:36;93224.63;;;14.08;71.04
20009;BME280;10165;42.662;23.260;2023-04-25T03:16:04;93228.88;;;13.95;70.65
20009;BME280;10165;42.662;23.260;2023-04-25T03:18:31;93225.06;;;13.74;71.86
20009;BME280;10165;42.662;23.260;2023-04-25T03:20:58;93223.13;;;13.85;72.00
20009;BME280;10165;42.662;23.260;2023-04-25T03:23:24;93220.84;;;13.13;76.15
20009;BME280;10165;42.662;23.260;2023-04-25T03:25:52;93213.56;;;13.70;73.40
20009;BME280;10165;42.662;23.260;2023-04-25T03:28:18;93213.19;;;13.26;75.74
20009;BME280;10165;42.662;23.260;2023-04-25T03:30:46;93208.19;;;13.67;73.68
20009;BME280;10165;42.662;23.260;2023-04-25T03:33:13;93228.09;;;13.76;73.37
20009;BME280;10165;42.662;23.260;2023-04-25T03:35:39;93214.31;;;13.74;73.43
20009;BME280;10165;42.662;23.260;2023-04-25T03:38:06;93215.84;;;13.89;72.59
20009;BME280;10165;42.662;23.260;2023-04-25T03:40:33;93217.34;;;14.01;72.48
20009;BME280;10165;42.662;23.260;2023-04-25T03:43:00;93215.09;;;13.71;73.63
20009;BME280;10165;42.662;23.260;2023-04-25T03:45:27;93212.03;;;13.30;75.16
20009;BME280;10165;42.662;23.260;2023-04-25T03:47:53;93214.53;;;11.77;81.35
20009;BME280;10165;42.662;23.260;2023-04-25T03:50:20;93217.00;;;12.00;85.05
20009;BME280;10165;42.662;23.260;2023-04-25T03:52:47;93211.06;;;12.45;82.65
20009;BME280;10165;42.662;23.260;2023-04-25T03:55:13;93208.41;;;12.45;82.77
20009;BME280;10165;42.662;23.260;2023-04-25T03:57:40;93209.19;;;12.53;81.04
20009;BME280;10165;42.662;23.260;2023-04-25T04:00:07;93222.28;;;12.79;79.55
20009;BME280;10165;42.662;23.260;2023-04-25T04:02:34;93225.66;;;12.62;80.56
20009;BME280;10165;42.662;23.260;2023-04-25T04:05:03;93219.28;;;13.12;79.37
20009;BME280;10165;42.662;23.260;2023-04-25T04:07:30;93234.47;;;12.73;81.17
20009;BME280;10165;42.662;23.260;2023-04-25T04:09:59;93228.88;;;13.24;78.85
20009;BME280;10165;42.662;23.260;2023-04-25T04:12:26;93235.00;;;13.81;76.35
20009;BME280;10165;42.662;23.260;2023-04-25T04:14:52;93232.72;;;13.51;75.59
20009;BME280;10165;42.662;23.260;2023-04-25T04:17:19;93232.72;;;13.76;75.55
20009;BME280;10165;42.662;23.260;2023-04-25T04:19:46;93226.97;;;13.67;75.78
20009;BME280;10165;42.662;23.260;2023-04-25T04:22:12;93223.16;;;13.68;76.34
20009;BME280;10165;42.662;23.260;2023-04-25T04:24:39;93225.78;;;14.10;75.25
20009;BME280;10165;42.662;23.260;2023-04-25T04:27:06;93233.41;;;14.19;73.45
20009;BME280;10165;42.662;23.260;2023-04-25T04:29:32;93231.81;;;12.76;79.66
20009;BME280;10165;42.662;23.260;2023-04-25T04:31:59;93230.03;;;13.23;78.80
20009;BME280;10165;42.662;23.260;2023-04-25T04:34:27;93224.63;;;13.02;79.69
20009;BME280;10165;42.662;23.260;2023-04-25T04:36:54;93228.53;;;12.14;81.74
20009;BME280;10165;42.662;23.260;2023-04-25T04:39:21;93226.63;;;11.60;87.01
20009;BME280;10165;42.662;23.260;2023-04-25T04:41:48;93211.84;;;12.45;85.42
20009;BME280;10165;42.662;23.260;2023-04-25T04:44:15;93210.50;;;13.36;79.50
20009;BME280;10165;42.662;23.260;2023-04-25T04:46:41;93216.25;;;13.35;78.52
20009;BME280;10165;42.662;23.260;2023-04-25T04:49:09;93225.81;;;13.78;76.24
20009;BME280;10165;42.662;23.260;2023-04-25T04:51:37;93229.25;;;13.89;76.17
20009;BME280;10165;42.662;23.260;2023-04-25T04:54:04;93232.72;;;13.83;75.09
20009;BME280;10165;42.662;23.260;2023-04-25T04:56:31;93241.16;;;13.32;77.71
20009;BME280;10165;42.662;23.260;2023-04-25T04:58:58;93256.88;;;13.48;77.17
20009;BME280;10165;42.662;23.260;2023-04-25T05:01:25;93254.59;;;13.67;76.39
20009;BME280;10165;42.662;23.260;2023-04-25T05:03:52;93253.78;;;14.02;75.55
20009;BME280;10165;42.662;23.260;2023-04-25T05:06:20;93252.56;;;14.31;74.17
20009;BME280;10165;42.662;23.260;2023-04-25T05:08:47;93257.19;;;14.34;73.63
20009;BME280;10165;42.662;23.260;2023-04-25T05:11:14;93259.53;;;14.08;74.17
20009;BME280;10165;42.662;23.260;2023-04-25T05:13:40;93258.72;;;14.25;74.18
20009;BME280;10165;42.662;23.260;2023-04-25T05:16:07;93251.44;;;14.18;74.19
20009;BME280;10165;42.662;23.260;2023-04-25T05:18:34;93251.06;;;14.16;74.93
20009;BME280;10165;42.662;23.260;2023-04-25T05:21:00;93249.56;;;13.94;75.63
20009;BME280;10165;42.662;23.260;2023-04-25T05:23:27;93261.47;;;13.68;75.95
20009;BME280;10165;42.662;23.260;2023-04-25T05:25:54;93255.75;;;13.52;77.32
20009;BME280;10165;42.662;23.260;2023-04-25T05:28:21;93252.66;;;13.18;79.08
20009;BME280;10165;42.662;23.260;2023-04-25T05:30:48;93254.19;;;13.83;77.01
20009;BME280;10165;42.662;23.260;2023-04-25T05:33:15;93258.78;;;13.89;77.42
20009;BME280;10165;42.662;23.260;2023-04-25T05:35:41;93260.72;;;13.78;78.01
20009;BME280;10165;42.662;23.260;2023-04-25T05:38:08;93254.19;;;13.79;78.33
20009;BME280;10165;42.662;23.260;2023-04-25T05:40:35;93264.53;;;14.06;77.09
20009;BME280;10165;42.662;23.260;2023-04-25T05:43:02;93258.03;;;13.78;76.03
20009;BME280;10165;42.662;23.260;2023-04-25T05:45:29;93248.84;;;13.51;79.27
20009;BME280;10165;42.662;23.260;2023-04-25T05:47:55;93262.19;;;14.15;77.03
20009;BME280;10165;42.662;23.260;2023-04-25T05:50:22;93250.69;;;13.12;77.90
20009;BME280;10165;42.662;23.260;2023-04-25T05:52:49;93250.75;;;13.54;78.62
20009;BME280;10165;42.662;23.260;2023-04-25T05:55:16;93254.19;;;13.86;77.98
20009;BME280;10165;42.662;23.260;2023-04-25T05:57:43;93256.88;;;13.76;78.39
20009;BME280;10165;42.662;23.260;2023-04-25T06:00:13;93261.00;;;12.99;82.24
20009;BME280;10165;42.662;23.260;2023-04-25T06:02:41;93246.97;;;12.30;84.51
20009;BME280;10165;42.662;23.260;2023-04-25T06:05:08;93253.94;;;12.49;86.28
20009;BME280;10165;42.662;23.260;2023-04-25T06:07:36;93251.50;;;13.58;80.56
20009;BME280;10165;42.662;23.260;2023-04-25T06:10:03;93260.31;;;13.91;79.13
20009;BME280;10165;42.662;23.260;2023-04-25T06:12:33;93261.47;;;13.36;79.43
20009;BME280;10165;42.662;23.260;2023-04-25T06:15:00;93256.97;;;12.47;83.78
20009;BME280;10165;42.662;23.260;2023-04-25T06:17:27;93257.81;;;12.69;83.17
20009;BME280;10165;42.662;23.260;2023-04-25T06:19:54;93253.44;;;13.40;79.58
20009;BME280;10165;42.662;23.260;2023-04-25T06:22:21;93254.94;;;13.69;77.67
20009;BME280;10165;42.662;23.260;2023-04-25T06:24:47;93256.13;;;13.82;77.03
20009;BME280;10165;42.662;23.260;2023-04-25T06:27:14;93264.09;;;14.11;76.54
20009;BME280;10165;42.662;23.260;2023-04-25T06:29:42;93260.69;;;13.29;79.87
20009;BME280;10165;42.662;23.260;2023-04-25T06:32:09;93265.66;;;13.34;79.88
20009;BME280;10165;42.662;23.260;2023-04-25T06:34:35;93280.97;;;14.40;76.25
20009;BME280;10165;42.662;23.260;2023-04-25T06:37:02;93259.56;;;13.69;76.97
20009;BME280;10165;42.662;23.260;2023-04-25T06:39:29;93261.84;;;13.74;77.38
20009;BME280;10165;42.662;23.260;2023-04-25T06:41:56;93275.59;;;14.32;75.54
20009;BME280;10165;42.662;23.260;2023-04-25T06:44:22;93277.16;;;14.19;74.68
20009;BME280;10165;42.662;23.260;2023-04-25T06:46:50;93280.63;;;13.81;77.42
20009;BME280;10165;42.662;23.260;2023-04-25T06:49:17;93274.50;;;13.70;78.83
20009;BME280;10165;42.662;23.260;2023-04-25T06:51:44;93271.81;;;13.66;79.15
20009;BME280;10165;42.662;23.260;2023-04-25T06:54:10;93268.56;;;14.77;74.92
20009;BME280;10165;42.662;23.260;2023-04-25T06:56:37;93274.69;;;14.81;74.15
20009;BME280;10165;42.662;23.260;2023-04-25T06:59:04;93266.56;;;14.96;72.99
20009;BME280;10165;42.662;23.260;2023-04-25T07:01:30;93276.53;;;14.99;73.33
20009;BME280;10165;42.662;23.260;2023-04-25T07:03:57;93277.31;;;14.96;73.03
20009;BME280;10165;42.662;23.260;2023-04-25T07:06:24;93278.34;;;13.86;73.43
20009;BME280;10165;42.662;23.260;2023-04-25T07:08:52;93276.44;;;13.48;77.79
20009;BME280;10165;42.662;23.260;2023-04-25T07:11:19;93277.13;;;14.26;74.36
20009;BME280;10165;42.662;23.260;2023-04-25T07:13:46;93259.38;;;14.64;73.12
20009;BME280;10165;42.662;23.260;2023-04-25T07:16:12;93271.06;;;13.91;75.96
20009;BME280;10165;42.662;23.260;2023-04-25T07:18:39;93272.16;;;14.11;75.86
20009;BME280;10165;42.662;23.260;2023-04-25T07:21:06;93264.09;;;14.32;75.80
20009;BME280;10165;42.662;23.260;2023-04-25T07:23:32;93261.03;;;14.37;75.08
20009;BME280;10165;42.662;23.260;2023-04-25T07:25:59;93264.09;;;14.28;72.29
20009;BME280;10165;42.662;23.260;2023-04-25T07:28:26;93263.50;;;14.94;72.26
20009;BME280;10165;42.662;23.260;2023-04-25T07:30:52;93256.47;;;15.17;70.63
20009;BME280;10165;42.662;23.260;2023-04-25T07:33:19;93253.78;;;15.17;71.38
20009;BME280;10165;42.662;23.260;2023-04-25T07:35:47;93257.63;;;15.16;70.37
20009;BME280;10165;42.662;23.260;2023-04-25T07:38:13;93260.22;;;13.02;78.09
20009;BME280;10165;42.662;23.260;2023-04-25T07:40:40;93256.47;;;14.06;74.02
20009;BME280;10165;42.662;23.260;2023-04-25T07:43:07;93261.69;;;14.66;74.29
20009;BME280;10165;42.662;23.260;2023-04-25T07:45:33;93265.97;;;15.32;72.16
20009;BME280;10165;42.662;23.260;2023-04-25T07:48:00;93265.28;;;15.18;73.16
20009;BME280;10165;42.662;23.260;2023-04-25T07:50:27;93263.69;;;14.48;74.18
20009;BME280;10165;42.662;23.260;2023-04-25T07:52:53;93259.91;;;15.14;75.16
20009;BME280;10165;42.662;23.260;2023-04-25T07:55:20;93246.34;;;14.66;72.18
20009;BME280;10165;42.662;23.260;2023-04-25T07:57:47;93254.53;;;15.21;73.16
20009;BME280;10165;42.662;23.260;2023-04-25T08:00:14;93240.16;;;15.94;67.15
20009;BME280;10165;42.662;23.260;2023-04-25T08:02:41;93245.41;;;16.08;62.35
20009;BME280;10165;42.662;23.260;2023-04-25T08:05:27;93242.06;;;16.71;55.93
20009;BME280;10165;42.662;23.260;2023-04-25T08:08:18;93249.47;;;16.64;55.32
20009;BME280;10165;42.662;23.260;2023-04-25T08:10:45;93250.53;;;16.36;55.83
20009;BME280;10165;42.662;23.260;2023-04-25T08:13:12;93252.94;;;16.64;55.05
20009;BME280;10165;42.662;23.260;2023-04-25T08:15:38;93250.22;;;16.27;54.36
20009;BME280;10165;42.662;23.260;2023-04-25T08:18:05;93235.38;;;16.83;54.21
20009;BME280;10165;42.662;23.260;2023-04-25T08:20:32;93228.75;;;16.88;52.53
20009;BME280;10165;42.662;23.260;2023-04-25T08:22:59;93227.84;;;17.28;52.50
20009;BME280;10165;42.662;23.260;2023-04-25T08:25:25;93236.22;;;17.07;52.74
20009;BME280;10165;42.662;23.260;2023-04-25T08:27:52;93239.06;;;16.96;53.69
20009;BME280;10165;42.662;23.260;2023-04-25T08:30:19;93238.19;;;16.72;56.46
20009;BME280;10165;42.662;23.260;2023-04-25T08:32:45;93237.59;;;15.76;57.92
20009;BME280;10165;42.662;23.260;2023-04-25T08:35:12;93237.53;;;15.87;59.88
20009;BME280;10165;42.662;23.260;2023-04-25T08:37:40;93232.41;;;17.04;58.76
20009;BME280;10165;42.662;23.260;2023-04-25T08:40:11;93229.66;;;17.08;56.99
20009;BME280;10165;42.662;23.260;2023-04-25T08:42:41;93233.56;;;17.03;57.81
20009;BME280;10165;42.662;23.260;2023-04-25T08:45:09;93219.06;;;17.47;58.49
20009;BME280;10165;42.662;23.260;2023-04-25T08:47:38;93216.41;;;17.94;54.91
20009;BME280;10165;42.662;23.260;2023-04-25T08:50:06;93214.91;;;17.93;55.51
20009;BME280;10165;42.662;23.260;2023-04-25T08:52:43;93223.19;;;17.82;55.60
20009;BME280;10165;42.662;23.260;2023-04-25T08:55:12;93223.75;;;16.90;52.44
20009;BME280;10165;42.662;23.260;2023-04-25T08:57:43;93207.13;;;17.72;51.97
20009;BME280;10165;42.662;23.260;2023-04-25T09:00:12;93213.31;;;17.45;52.66
20009;BME280;10165;42.662;23.260;2023-04-25T09:02:39;93215.19;;;16.95;52.58
20009;BME280;10165;42.662;23.260;2023-04-25T09:05:09;93217.22;;;17.14;51.44
20009;BME280;10165;42.662;23.260;2023-04-25T09:07:36;93210.50;;;18.22;51.38
20009;BME280;10165;42.662;23.260;2023-04-25T09:10:03;93216.31;;;18.21;48.60
20009;BME280;10165;42.662;23.260;2023-04-25T09:12:30;93227.44;;;17.80;50.28
20009;BME280;10165;42.662;23.260;2023-04-25T09:15:11;93219.22;;;17.63;48.85
20009;BME280;10165;42.662;23.260;2023-04-25T09:17:45;93216.94;;;17.35;48.60
20009;BME280;10165;42.662;23.260;2023-04-25T09:20:13;93219.53;;;17.15;47.20
20009;BME280;10165;42.662;23.260;2023-04-25T09:22:40;93212.31;;;16.79;48.04
20009;BME280;10165;42.662;23.260;2023-04-25T09:25:11;93226.88;;;16.85;45.56
20009;BME280;10165;42.662;23.260;2023-04-25T09:27:52;93214.78;;;16.66;45.74
20009;BME280;10165;42.662;23.260;2023-04-25T09:30:18;93210.50;;;17.26;45.00
20009;BME280;10165;42.662;23.260;2023-04-25T09:32:56;93213.19;;;16.99;44.27
20009;BME280;10165;42.662;23.260;2023-04-25T09:35:25;93209.84;;;17.45;44.85
20009;BME280;10165;42.662;23.260;2023-04-25T09:37:55;93210.34;;;17.86;44.33
20009;BME280;10165;42.662;23.260;2023-04-25T09:40:22;93213.88;;;17.83;44.95
20009;BME280;10165;42.662;23.260;2023-04-25T09:42:48;93206.38;;;17.71;44.23
20009;BME280;10165;42.662;23.260;2023-04-25T09:45:15;93203.16;;;17.80;43.74
20009;BME280;10165;42.662;23.260;2023-04-25T09:47:42;93195.91;;;18.39;42.38
20009;BME280;10165;42.662;23.260;2023-04-25T09:50:15;93199.63;;;18.26;42.91
20009;BME280;10165;42.662;23.260;2023-04-25T09:52:42;93195.34;;;18.28;43.93
20009;BME280;10165;42.662;23.260;2023-04-25T09:55:09;93197.09;;;17.72;43.49
20009;BME280;10165;42.662;23.260;2023-04-25T09:57:36;93203.50;;;17.82;44.25
20009;BME280;10165;42.662;23.260;2023-04-25T10:00:06;93203.63;;;17.48;43.20
20009;BME280;10165;42.662;23.260;2023-04-25T10:02:42;93218.75;;;17.15;42.83
20009;BME280;10165;42.662;23.260;2023-04-25T10:05:09;93221.63;;;17.31;44.21
20009;BME280;10165;42.662;23.260;2023-04-25T10:07:37;93241.22;;;16.44;46.92
20009;BME280;10165;42.662;23.260;2023-04-25T10:10:05;93271.91;;;14.99;55.01
20009;BME280;10165;42.662;23.260;2023-04-25T10:12:33;93253.63;;;14.66;59.63
20009;BME280;10165;42.662;23.260;2023-04-25T10:15:01;93244.31;;;14.88;61.92
20009;BME280;10165;42.662;23.260;2023-04-25T10:17:29;93230.91;;;15.98;59.95
20009;BME280;10165;42.662;23.260;2023-04-25T10:19:56;93224.94;;;16.51;59.77
20009;BME280;10165;42.662;23.260;2023-04-25T10:22:29;93214.41;;;16.94;62.08
20009;BME280;10165;42.662;23.260;2023-04-25T10:24:57;93203.38;;;16.85;59.33
20009;BME280;10165;42.662;23.260;2023-04-25T10:27:27;93194.97;;;17.33;61.44
20009;BME280;10165;42.662;23.260;2023-04-25T10:30:05;93193.00;;;17.37;51.74
20009;BME280;10165;42.662;23.260;2023-04-25T10:32:35;93191.63;;;17.99;55.09
20009;BME280;10165;42.662;23.260;2023-04-25T10:35:16;93192.09;;;17.94;50.24
20009;BME280;10165;42.662;23.260;2023-04-25T10:40:34;93186.72;;;17.71;45.29
20009;BME280;10165;42.662;23.260;2023-04-25T10:46:01;93193.72;;;16.54;46.11
20009;BME280;10165;42.662;23.260;2023-04-25T10:48:29;93189.41;;;16.60;46.74
20009;BME280;10165;42.662;23.260;2023-04-25T10:51:17;93196.41;;;16.54;47.47
20009;BME280;10165;42.662;23.260;2023-04-25T10:53:46;93193.13;;;16.73;47.11
20009;BME280;10165;42.662;23.260;2023-04-25T10:56:20;93192.22;;;17.10;47.19
20009;BME280;10165;42.662;23.260;2023-04-25T10:58:48;93188.09;;;17.02;47.50
20009;BME280;10165;42.662;23.260;2023-04-25T11:01:24;93182.00;;;17.25;47.14
20009;BME280;10165;42.662;23.260;2023-04-25T11:03:57;93179.50;;;17.37;46.52
20009;BME280;10165;42.662;23.260;2023-04-25T11:09:45;93186.28;;;17.72;45.27
20009;BME280;10165;42.662;23.260;2023-04-25T11:12:12;93185.59;;;17.41;45.70
20009;BME280;10165;42.662;23.260;2023-04-25T11:14:39;93169.69;;;18.17;46.36
20009;BME280;10165;42.662;23.260;2023-04-25T11:17:11;93168.72;;;18.27;45.62
20009;BME280;10165;42.662;23.260;2023-04-25T11:19:38;93173.97;;;18.14;44.91
20009;BME280;10165;42.662;23.260;2023-04-25T11:22:05;93181.97;;;17.98;45.19
20009;BME280;10165;42.662;23.260;2023-04-25T11:24:34;93186.81;;;17.87;45.81
20009;BME280;10165;42.662;23.260;2023-04-25T11:27:02;93187.81;;;16.96;48.00
20009;BME280;10165;42.662;23.260;2023-04-25T11:29:31;93186.84;;;16.49;49.88
20009;BME280;10165;42.662;23.260;2023-04-25T11:31:59;93186.84;;;16.49;51.13
20009;BME280;10165;42.662;23.260;2023-04-25T11:34:31;93199.16;;;16.16;52.04
20009;BME280;10165;42.662;23.260;2023-04-25T11:37:00;93200.34;;;16.12;54.07
20009;BME280;10165;42.662;23.260;2023-04-25T11:39:28;93217.94;;;16.23;52.63
20009;BME280;10165;42.662;23.260;2023-04-25T11:41:55;93222.84;;;15.43;53.55
20009;BME280;10165;42.662;23.260;2023-04-25T11:44:22;93230.06;;;14.98;55.07
20009;BME280;10165;42.662;23.260;2023-04-25T11:46:49;93218.31;;;15.33;58.05
20009;BME280;10165;42.662;23.260;2023-04-25T11:49:16;93209.50;;;15.81;56.95
20009;BME280;10165;42.662;23.260;2023-04-25T11:51:47;93202.44;;;16.31;57.45
20009;BME280;10165;42.662;23.260;2023-04-25T11:54:14;93189.75;;;16.32;57.23
20009;BME280;10165;42.662;23.260;2023-04-25T11:56:43;93191.44;;;16.15;57.72
20009;BME280;10165;42.662;23.260;2023-04-25T11:59:10;93177.38;;;16.34;59.36
20009;BME280;10165;42.662;23.260;2023-04-25T12:01:40;93166.16;;;16.05;60.67
20009;BME280;10165;42.662;23.260;2023-04-25T12:04:23;93157.28;;;16.72;57.98
20009;BME280;10165;42.662;23.260;2023-04-25T12:06:52;93157.53;;;17.12;56.34
20009;BME280;10165;42.662;23.260;2023-04-25T12:09:33;93162.50;;;17.63;54.21
20009;BME280;10165;42.662;23.260;2023-04-25T12:12:00;93164.50;;;18.26;52.63
20009;BME280;10165;42.662;23.260;2023-04-25T12:14:32;93166.22;;;17.73;49.89
20009;BME280;10165;42.662;23.260;2023-04-25T12:17:01;93169.81;;;17.40;53.43
20009;BME280;10165;42.662;23.260;2023-04-25T12:19:33;93165.16;;;17.40;49.05
20009;BME280;10165;42.662;23.260;2023-04-25T12:22:01;93165.63;;;17.62;48.12
20009;BME280;10165;42.662;23.260;2023-04-25T12:24:32;93160.97;;;18.09;47.87
20009;BME280;10165;42.662;23.260;2023-04-25T12:27:05;93177.28;;;17.32;47.09
20009;BME280;10165;42.662;23.260;2023-04-25T12:29:33;93204.59;;;17.34;50.74
20009;BME280;10165;42.662;23.260;2023-04-25T12:32:14;93222.31;;;15.07;58.67
20009;BME280;10165;42.662;23.260;2023-04-25T12:34:42;93227.88;;;15.38;58.76
20009;BME280;10165;42.662;23.260;2023-04-25T12:37:09;93231.69;;;14.81;60.08
20009;BME280;10165;42.662;23.260;2023-04-25T12:39:35;93234.38;;;14.81;60.11
20009;BME280;10165;42.662;23.260;2023-04-25T12:42:02;93234.13;;;14.51;57.84
20009;BME280;10165;42.662;23.260;2023-04-25T12:44:33;93236.22;;;14.92;57.78
20009;BME280;10165;42.662;23.260;2023-04-25T12:47:00;93240.16;;;14.73;58.48
20009;BME280;10165;42.662;23.260;2023-04-25T12:49:27;93240.16;;;14.73;60.61
20009;BME280;10165;42.662;23.260;2023-04-25T12:51:54;93242.84;;;14.76;62.06
20009;BME280;10165;42.662;23.260;2023-04-25T12:54:21;93244.38;;;14.77;62.41
20009;BME280;10165;42.662;23.260;2023-04-25T12:56:47;93239.13;;;15.22;61.30
20009;BME280;10165;42.662;23.260;2023-04-25T12:59:14;93252.16;;;15.30;61.94
20009;BME280;10165;42.662;23.260;2023-04-25T13:01:40;93261.25;;;14.81;66.42
20009;BME280;10165;42.662;23.260;2023-04-25T13:04:07;93269.06;;;14.26;69.66